createdAt,value
2017-11-30T00:00:32.331Z,87.31
2017-11-30T00:03:03.503Z,87.86
2017-11-30T00:05:34.415Z,87.98
2017-11-30T00:08:05.602Z,87.59
2017-11-30T00:10:36.598Z,88.67
2017-11-30T00:13:08.208Z,89.13
2017-11-30T00:15:40.781Z,88.66
2017-11-30T00:18:15.731Z,87.65
2017-11-30T00:20:46.890Z,87.35
2017-11-30T00:23:18.282Z,87.57
2017-11-30T00:25:50.247Z,86.96
2017-11-30T00:28:21.617Z,86.15
2017-11-30T00:30:53.893Z,85.82
2017-11-30T00:33:25.044Z,86.25
2017-11-30T00:35:56.282Z,87.01
2017-11-30T00:38:28.401Z,86.28
2017-11-30T00:40:59.971Z,86.27
2017-11-30T00:43:35.720Z,86.62
2017-11-30T00:46:07.278Z,86.10
2017-11-30T00:48:38.448Z,86.26
2017-11-30T00:51:09.496Z,86.12
2017-11-30T00:53:40.421Z,86.53
2017-11-30T00:56:11.795Z,86.11
2017-11-30T00:58:43.080Z,86.68
2017-11-30T01:01:14.525Z,87.22
2017-11-30T01:03:46.215Z,87.13
2017-11-30T01:06:17.060Z,87.03
2017-11-30T01:08:48.127Z,86.89
2017-11-30T01:11:19.179Z,85.66
2017-11-30T01:13:50.387Z,86.06
2017-11-30T01:16:21.780Z,86.10
2017-11-30T01:18:52.850Z,87.36
2017-11-30T01:21:30.182Z,85.69
2017-11-30T01:24:00.911Z,86.79
2017-11-30T01:26:31.725Z,86.58
2017-11-30T01:29:02.704Z,86.91
2017-11-30T01:31:34.296Z,86.19
2017-11-30T01:34:05.813Z,87.80
2017-11-30T01:36:36.841Z,91.33
2017-11-30T01:39:07.981Z,89.60
2017-11-30T01:41:39.034Z,90.51
2017-11-30T01:44:10.167Z,88.98
2017-11-30T01:46:41.431Z,89.65
2017-11-30T01:49:12.395Z,90.48
2017-11-30T01:51:43.729Z,91.32
2017-11-30T01:54:15.135Z,93.61
2017-11-30T01:56:46.724Z,96.17
2017-11-30T01:59:18.185Z,96.41
2017-11-30T02:01:50.859Z,96.78
2017-11-30T02:04:21.866Z,93.88
2017-11-30T02:06:52.930Z,90.90
2017-11-30T02:09:23.929Z,88.52
2017-11-30T02:11:55.680Z,86.40
2017-11-30T02:14:27.873Z,86.13
2017-11-30T02:17:00.229Z,85.88
2017-11-30T02:19:33.419Z,87.16
2017-11-30T02:22:04.619Z,86.45
2017-11-30T02:25:03.137Z,86.69
2017-11-30T02:27:46.621Z,87.25
2017-11-30T02:30:20.423Z,90.58
2017-11-30T02:32:52.422Z,94.54
2017-11-30T02:35:24.058Z,96.23
2017-11-30T02:37:57.377Z,96.27
2017-11-30T02:40:32.938Z,90.57
2017-11-30T02:43:05.773Z,87.12
2017-11-30T02:45:37.237Z,90.32
2017-11-30T02:48:09.076Z,91.26
2017-11-30T02:50:40.916Z,87.41
2017-11-30T02:53:18.350Z,85.49
2017-11-30T02:55:52.611Z,85.11
2017-11-30T02:58:29.294Z,85.29
2017-11-30T03:01:04.900Z,85.64
2017-11-30T03:03:37.320Z,85.26
2017-11-30T03:06:13.730Z,84.37
2017-11-30T03:08:49.744Z,83.35
2017-11-30T03:11:20.825Z,83.82
2017-11-30T03:13:53.802Z,85.85
2017-11-30T03:16:24.840Z,89.70
2017-11-30T03:18:55.929Z,90.43
2017-11-30T03:21:27.253Z,86.91
2017-11-30T03:24:05.343Z,85.67
2017-11-30T03:26:46.132Z,82.88
2017-11-30T03:29:28.804Z,83.21
2017-11-30T03:32:03.190Z,84.69
2017-11-30T03:34:34.439Z,84.27
2017-11-30T03:37:07.404Z,84.41
2017-11-30T03:39:41.772Z,85.19
2017-11-30T03:42:15.856Z,85.48
2017-11-30T03:44:49.330Z,83.00
2017-11-30T03:47:21.378Z,83.39
2017-11-30T03:49:52.476Z,84.05
2017-11-30T03:52:26.232Z,83.64
2017-11-30T03:54:57.519Z,85.15
2017-11-30T03:57:29.297Z,84.88
2017-11-30T04:00:00.426Z,84.17
2017-11-30T04:02:31.564Z,83.10
2017-11-30T04:05:05.869Z,82.92
2017-11-30T04:07:38.838Z,82.90
2017-11-30T04:12:20.055Z,83.33
2017-11-30T04:14:54.905Z,85.63
2017-11-30T04:17:28.677Z,85.99
2017-11-30T04:20:00.108Z,84.37
2017-11-30T04:22:30.951Z,84.49
2017-11-30T04:25:01.945Z,85.25
2017-11-30T04:27:33.064Z,84.14
2017-11-30T04:30:08.100Z,85.25
2017-11-30T04:32:41.385Z,84.69
2017-11-30T04:35:12.157Z,84.82
2017-11-30T04:37:43.423Z,84.80
2017-11-30T04:40:14.455Z,87.04
2017-11-30T04:42:45.383Z,83.87
2017-11-30T04:45:17.860Z,85.06
2017-11-30T04:47:49.725Z,84.54
2017-11-30T04:50:24.286Z,84.17
2017-11-30T04:52:55.469Z,84.83
2017-11-30T04:55:30.117Z,86.43
2017-11-30T04:58:02.256Z,83.47
2017-11-30T05:00:37.496Z,83.34
2017-11-30T05:03:08.604Z,82.99
2017-11-30T05:05:40.119Z,83.40
2017-11-30T05:08:12.863Z,83.10
2017-11-30T05:10:43.879Z,83.05
2017-11-30T05:13:14.899Z,83.18
2017-11-30T05:15:46.350Z,83.26
2017-11-30T05:18:23.120Z,83.87
2017-11-30T05:20:55.872Z,84.10
2017-11-30T05:23:29.772Z,83.93
2017-11-30T05:26:04.520Z,84.13
2017-11-30T05:28:41.774Z,83.96
2017-11-30T05:31:17.871Z,84.13
2017-11-30T05:33:49.262Z,84.62
2017-11-30T05:36:49.903Z,83.59
